createdAt,value
2022-08-09T00:00:11.911Z,19.00
2022-08-09T00:02:48.965Z,19.00
2022-08-09T00:06:18.384Z,19.00
2022-08-09T00:08:09.865Z,19.00
2022-08-09T00:10:40.039Z,19.00
2022-08-09T00:13:16.853Z,19.00
2022-08-09T00:15:59.340Z,19.00
2022-08-09T00:18:31.415Z,19.00
2022-08-09T00:21:04.398Z,19.00
2022-08-09T00:23:54.706Z,19.00
2022-08-09T00:26:29.988Z,19.00
2022-08-09T00:29:01.278Z,19.00
2022-08-09T00:31:50.542Z,19.00
2022-08-09T00:34:19.527Z,19.00
2022-08-09T00:36:48.779Z,18.90
2022-08-09T00:40:13.770Z,18.90
2022-08-09T00:44:14.660Z,18.80
2022-08-09T00:44:54.597Z,18.80
2022-08-09T00:47:24.668Z,18.70
2022-08-09T00:49:54.822Z,18.70
2022-08-09T00:52:30.098Z,18.70
2022-08-09T00:55:00.298Z,18.60
2022-08-09T00:57:34.748Z,18.60
2022-08-09T01:00:22.129Z,18.50
2022-08-09T01:02:53.512Z,18.50
2022-08-09T01:05:53.481Z,18.40
2022-08-09T01:08:27.069Z,18.40
2022-08-09T01:11:08.830Z,18.30
2022-08-09T01:13:58.664Z,18.30
2022-08-09T01:16:33.184Z,18.30
2022-08-09T01:19:40.042Z,18.30
2022-08-09T01:22:59.592Z,18.30
2022-08-09T01:25:48.937Z,18.20
2022-08-09T01:28:22.409Z,18.20
2022-08-09T01:30:58.262Z,18.10
2022-08-09T01:33:30.283Z,18.10
2022-08-09T01:36:04.149Z,18.10
2022-08-09T01:38:38.398Z,18.10
2022-08-09T01:41:14.307Z,18.10
2022-08-09T01:43:51.950Z,18.10
2022-08-09T01:46:24.967Z,18.00
2022-08-09T01:48:56.908Z,18.00
2022-08-09T01:51:26.391Z,18.00
2022-08-09T01:53:58.001Z,17.90
2022-08-09T01:56:28.087Z,17.90
2022-08-09T01:58:58.665Z,17.90
2022-08-09T02:01:58.333Z,17.80
2022-08-09T02:04:19.183Z,17.80
2022-08-09T02:07:05.664Z,17.80
2022-08-09T02:09:41.818Z,17.70
2022-08-09T02:12:21.265Z,17.70
2022-08-09T02:15:06.493Z,17.60
2022-08-09T02:18:00.907Z,17.60
2022-08-09T02:20:32.528Z,17.50
2022-08-09T02:23:07.109Z,17.50
2022-08-09T02:25:42.190Z,17.50
2022-08-09T02:28:21.124Z,17.40
2022-08-09T02:30:59.504Z,17.40
2022-08-09T02:33:37.987Z,17.40
2022-08-09T02:36:26.272Z,17.40
2022-08-09T02:38:56.568Z,17.40
2022-08-09T02:41:28.505Z,17.40
2022-08-09T02:44:10.306Z,17.30
2022-08-09T02:46:44.606Z,17.30
2022-08-09T02:49:15.661Z,17.30
2022-08-09T02:51:48.794Z,17.20
2022-08-09T02:54:19.177Z,17.20
2022-08-09T02:56:53.973Z,17.20
2022-08-09T02:59:36.382Z,17.20
2022-08-09T03:02:11.951Z,17.10
2022-08-09T03:04:41.682Z,17.10
2022-08-09T03:07:12.515Z,17.10
2022-08-09T03:09:54.334Z,17.00
2022-08-09T03:12:25.436Z,17.00
2022-08-09T03:14:54.747Z,17.00
2022-08-09T03:17:26.674Z,16.90
2022-08-09T03:20:03.167Z,16.90
2022-08-09T03:22:42.039Z,16.90
2022-08-09T03:25:25.737Z,16.90
2022-08-09T03:28:03.672Z,16.90
2022-08-09T03:30:34.009Z,16.80
2022-08-09T03:33:17.187Z,16.80
2022-08-09T03:36:13.536Z,16.80
2022-08-09T03:38:37.424Z,16.70
2022-08-09T03:41:15.358Z,16.70
2022-08-09T03:44:03.135Z,16.70
2022-08-09T03:46:32.886Z,16.70
2022-08-09T03:49:09.015Z,16.60
2022-08-09T03:51:57.793Z,16.60
2022-08-09T03:54:31.307Z,16.60
2022-08-09T03:57:02.199Z,16.50
2022-08-09T03:59:42.985Z,16.50
2022-08-09T04:02:27.015Z,16.50
2022-08-09T04:04:58.621Z,16.40
2022-08-09T04:07:47.478Z,16.40
2022-08-09T04:10:20.556Z,16.40
2022-08-09T04:12:51.486Z,16.40
2022-08-09T04:15:38.892Z,16.40
2022-08-09T04:18:16.407Z,16.30
2022-08-09T04:20:47.509Z,16.30
2022-08-09T04:23:17.296Z,16.30
2022-08-09T04:25:52.312Z,16.30
2022-08-09T04:28:31.869Z,16.30
2022-08-09T04:31:05.673Z,16.30
2022-08-09T04:33:47.741Z,16.20
2022-08-09T04:36:24.278Z,16.20
2022-08-09T04:38:52.408Z,16.30
2022-08-09T04:41:23.662Z,16.30
2022-08-09T04:44:05.066Z,16.30
2022-08-09T04:46:56.758Z,16.30
2022-08-09T04:49:40.296Z,16.30
2022-08-09T04:52:11.965Z,16.30
2022-08-09T04:54:48.104Z,16.30
2022-08-09T04:57:16.070Z,16.30
2022-08-09T04:59:52.628Z,16.30
2022-08-09T05:02:20.670Z,16.30
2022-08-09T05:04:48.551Z,16.40
2022-08-09T05:07:25.136Z,16.40
2022-08-09T05:09:57.671Z,16.40
2022-08-09T05:12:26.956Z,16.40
2022-08-09T05:14:54.811Z,16.50
2022-08-09T05:18:50.735Z,16.60
2022-08-09T05:20:11.961Z,16.60
2022-08-09T05:23:50.558Z,16.70
2022-08-09T05:25:32.344Z,16.80
2022-08-09T05:28:00.913Z,16.90
2022-08-09T05:30:30.131Z,17.00
2022-08-09T05:33:00.603Z,17.00
2022-08-09T05:35:29.899Z,17.10
2022-08-09T05:38:01.272Z,17.20
2022-08-09T05:40:29.605Z,17.30
2022-08-09T05:42:57.592Z,17.40
2022-08-09T05:45:26.167Z,17.50
2022-08-09T05:48:14.061Z,17.60
2022-08-09T05:50:51.231Z,17.80
2022-08-09T05:53:35.338Z,17.90
2022-08-09T05:56:10.527Z,18.10
2022-08-09T05:58:44.174Z,18.20
2022-08-09T06:01:15.805Z,18.40
2022-08-09T06:03:54.679Z,18.50
2022-08-09T06:06:26.613Z,18.70
2022-08-09T06:08:55.992Z,18.90
2022-08-09T06:11:40.541Z,19.10
2022-08-09T06:14:09.404Z,19.30
2022-08-09T06:16:38.036Z,19.50
2022-08-09T06:19:09.394Z,19.70
2022-08-09T06:21:37.307Z,19.90
2022-08-09T06:24:19.653Z,20.10
2022-08-09T06:26:47.537Z,20.40
2022-08-09T06:29:16.780Z,20.60
2022-08-09T06:32:17.262Z,20.80
2022-08-09T06:34:32.545Z,21.10
2022-08-09T06:37:01.397Z,21.30
2022-08-09T06:39:48.759Z,21.60
2022-08-09T06:42:24.694Z,21.80
2022-08-09T06:44:59.170Z,22.10
2022-08-09T06:47:39.628Z,22.50
2022-08-09T06:50:13.720Z,23.00
2022-08-09T06:52:48.496Z,23.90
2022-08-09T06:55:23.157Z,25.10
2022-08-09T06:58:02.532Z,26.60
2022-08-09T07:00:48.641Z,28.30
2022-08-09T07:03:19.856Z,30.00
2022-08-09T07:06:02.286Z,31.90
2022-08-09T07:08:31.211Z,33.50
2022-08-09T07:11:03.531Z,35.40
2022-08-09T07:13:31.723Z,36.90
2022-08-09T07:16:41.708Z,38.40
2022-08-09T07:19:07.712Z,39.90
2022-08-09T07:21:36.640Z,41.40
2022-08-09T07:24:05.143Z,42.50
2022-08-09T07:26:34.652Z,43.50
2022-08-09T07:29:12.186Z,44.50
2022-08-09T07:31:46.049Z,45.40
2022-08-09T07:34:20.487Z,46.20
2022-08-09T07:36:49.012Z,47.00
2022-08-09T07:39:20.525Z,47.80
2022-08-09T07:42:06.868Z,48.50
2022-08-09T07:44:52.017Z,49.10
2022-08-09T07:47:23.135Z,49.70
2022-08-09T07:50:04.473Z,50.30
2022-08-09T07:52:36.607Z,50.80
2022-08-09T07:55:09.554Z,51.40
2022-08-09T08:00:20.853Z,52.30
2022-08-09T08:03:04.354Z,52.70
2022-08-09T08:09:02.523Z,53.50
2022-08-09T08:12:09.230Z,54.00
2022-08-09T08:13:57.883Z,54.40
2022-08-09T08:16:31.769Z,54.70
2022-08-09T08:19:03.059Z,54.90
2022-08-09T08:21:32.667Z,55.30
2022-08-09T08:24:01.401Z,55.60
2022-08-09T08:26:42.046Z,55.80
2022-08-09T08:29:28.147Z,56.00
2022-08-09T08:32:03.219Z,56.30
2022-08-09T08:34:34.732Z,56.50
2022-08-09T08:37:05.054Z,56.50
2022-08-09T08:39:39.185Z,56.70
2022-08-09T08:42:12.490Z,56.70
2022-08-09T08:44:43.593Z,56.90
2022-08-09T08:47:14.344Z,57.00
2022-08-09T08:49:46.649Z,57.10
2022-08-09T08:52:52.584Z,57.20
2022-08-09T08:55:06.695Z,57.30
2022-08-09T08:57:36.078Z,57.40
2022-08-09T09:00:20.461Z,57.50
2022-08-09T09:02:52.617Z,57.60
2022-08-09T09:05:33.117Z,57.60
2022-08-09T09:08:29.988Z,57.60
2022-08-09T09:11:03.473Z,57.70
2022-08-09T09:13:34.782Z,57.80
2022-08-09T09:16:16.680Z,57.90
2022-08-09T09:18:51.882Z,57.90
2022-08-09T09:21:27.534Z,57.90
2022-08-09T09:23:58.512Z,58.00
2022-08-09T09:26:34.861Z,58.00
2022-08-09T09:29:11.319Z,58.10
2022-08-09T09:32:04.622Z,58.00
2022-08-09T09:34:39.642Z,58.00
2022-08-09T09:37:31.826Z,57.90
2022-08-09T09:40:02.638Z,57.70
2022-08-09T09:42:32.172Z,57.50
2022-08-09T09:45:03.190Z,57.30
2022-08-09T09:47:36.881Z,57.00
2022-08-09T09:50:23.148Z,56.70
2022-08-09T09:52:53.816Z,56.40
2022-08-09T09:55:27.880Z,56.20
2022-08-09T09:58:18.840Z,55.70
2022-08-09T10:00:53.896Z,55.10
2022-08-09T10:03:57.083Z,54.40
2022-08-09T10:06:28.620Z,53.30
2022-08-09T10:09:21.774Z,52.20
2022-08-09T10:12:04.475Z,51.10
2022-08-09T10:14:47.654Z,49.90
2022-08-09T10:17:54.942Z,48.60
2022-08-09T10:20:27.512Z,47.40
2022-08-09T10:23:14.063Z,46.20
2022-08-09T10:26:07.257Z,45.10
2022-08-09T10:28:35.414Z,44.10
2022-08-09T10:34:10.545Z,42.30
2022-08-09T10:36:43.237Z,41.50
2022-08-09T10:39:16.041Z,40.80
2022-08-09T10:41:48.308Z,40.20
2022-08-09T10:44:19.643Z,39.60
2022-08-09T10:48:17.314Z,39.10
2022-08-09T10:50:20.974Z,38.60
2022-08-09T10:53:10.382Z,38.10
2022-08-09T10:55:58.402Z,37.70
2022-08-09T10:58:33.598Z,37.40
2022-08-09T11:03:06.578Z,37.00
2022-08-09T11:04:29.641Z,36.80
2022-08-09T11:07:57.647Z,36.50
2022-08-09T11:11:01.013Z,36.20
2022-08-09T11:13:53.826Z,35.90
2022-08-09T11:16:37.362Z,35.70
2022-08-09T11:19:09.470Z,35.50
2022-08-09T11:21:57.374Z,35.40
2022-08-09T11:25:05.366Z,35.20
2022-08-09T11:28:05.486Z,35.00
2022-08-09T11:30:35.650Z,34.90
2022-08-09T11:33:07.150Z,34.70
2022-08-09T11:35:49.589Z,34.50
2022-08-09T11:38:21.974Z,34.40
2022-08-09T11:40:54.689Z,34.40
2022-08-09T11:43:43.389Z,34.20
2022-08-09T11:46:11.605Z,34.20
2022-08-09T11:48:51.374Z,34.10
2022-08-09T11:52:56.432Z,33.90
2022-08-09T11:54:29.032Z,33.80
2022-08-09T11:58:00.318Z,33.70
2022-08-09T12:00:29.856Z,33.60
2022-08-09T12:03:00.534Z,33.50
2022-08-09T12:05:49.202Z,33.50
2022-08-09T12:08:22.111Z,33.40
2022-08-09T12:10:52.958Z,33.30
2022-08-09T12:14:07.362Z,33.20
2022-08-09T12:16:30.627Z,33.20
2022-08-09T12:19:08.514Z,33.10
2022-08-09T12:21:48.611Z,33.10
2022-08-09T12:24:23.956Z,33.10
2022-08-09T12:28:58.460Z,32.90
2022-08-09T12:30:00.181Z,32.90
2022-08-09T12:32:44.142Z,32.80
2022-08-09T12:35:19.017Z,32.70
2022-08-09T12:37:51.420Z,32.70
2022-08-09T12:40:24.469Z,32.60
2022-08-09T12:42:53.648Z,32.50
2022-08-09T12:45:35.044Z,32.40
2022-08-09T12:48:19.993Z,32.40
2022-08-09T12:50:59.350Z,32.30
2022-08-09T12:53:37.154Z,32.30
2022-08-09T12:56:43.941Z,32.30
2022-08-09T12:59:11.871Z,32.30
2022-08-09T13:01:46.954Z,32.20
2022-08-09T13:04:36.608Z,32.20
2022-08-09T13:07:14.299Z,32.20
2022-08-09T13:09:52.782Z,32.20
2022-08-09T13:12:24.096Z,32.10
2022-08-09T13:14:54.902Z,32.10
2022-08-09T13:18:03.451Z,32.10
2022-08-09T13:20:16.200Z,32.10
2022-08-09T13:23:05.503Z,32.00
2022-08-09T13:25:42.981Z,32.00
2022-08-09T13:28:34.486Z,31.90
2022-08-09T13:32:14.841Z,31.80
2022-08-09T13:33:56.458Z,31.80
2022-08-09T13:36:40.905Z,31.80
2022-08-09T13:39:30.738Z,31.70
2022-08-09T13:42:02.497Z,31.70
2022-08-09T13:44:31.562Z,31.70
2022-08-09T13:47:27.028Z,31.60
2022-08-09T13:49:57.550Z,31.60
2022-08-09T13:52:28.002Z,31.50
2022-08-09T13:54:59.849Z,31.50
2022-08-09T13:57:35.574Z,31.20
2022-08-09T14:00:09.068Z,31.40
2022-08-09T14:02:42.857Z,31.30
2022-08-09T14:05:59.363Z,31.30
2022-08-09T14:08:15.818Z,31.20
2022-08-09T14:10:51.864Z,31.20
2022-08-09T14:13:28.363Z,31.10
2022-08-09T14:16:11.261Z,31.10
2022-08-09T14:18:45.211Z,31.10
2022-08-09T14:21:17.603Z,31.10
2022-08-09T14:23:55.232Z,31.10
2022-08-09T14:26:31.463Z,31.10
2022-08-09T14:29:03.183Z,31.00
2022-08-09T14:31:35.828Z,31.10
2022-08-09T14:34:32.392Z,31.00
2022-08-09T14:37:02.009Z,31.00
2022-08-09T14:39:40.206Z,31.00
2022-08-09T14:42:28.710Z,31.00
2022-08-09T14:46:40.226Z,30.90
2022-08-09T14:47:57.860Z,31.00
2022-08-09T14:50:28.718Z,30.90
2022-08-09T14:52:56.745Z,30.90
2022-08-09T14:55:29.215Z,30.90
2022-08-09T14:58:02.883Z,30.90
2022-08-09T15:00:31.715Z,30.90
2022-08-09T15:03:00.183Z,30.80
2022-08-09T15:05:28.389Z,30.80
2022-08-09T15:07:58.302Z,30.80
2022-08-09T15:10:28.998Z,30.70
2022-08-09T15:13:01.407Z,30.70
2022-08-09T15:15:34.442Z,30.60
2022-08-09T15:18:07.608Z,30.60
2022-08-09T15:21:54.981Z,30.60
2022-08-09T15:24:09.197Z,30.50
2022-08-09T15:26:19.243Z,30.50
2022-08-09T15:29:04.276Z,30.50
2022-08-09T15:31:41.871Z,30.50
2022-08-09T15:34:32.703Z,30.50
2022-08-09T15:36:59.750Z,30.40
2022-08-09T15:39:34.661Z,30.40
2022-08-09T15:42:04.682Z,30.40
2022-08-09T15:44:34.514Z,30.40
2022-08-09T15:47:03.237Z,30.40
2022-08-09T15:49:33.148Z,30.30
2022-08-09T15:52:05.545Z,30.30
2022-08-09T15:54:46.090Z,30.20
2022-08-09T15:57:19.332Z,30.20
2022-08-09T16:00:06.815Z,30.10
2022-08-09T16:02:34.822Z,30.10
2022-08-09T16:05:04.131Z,30.10
2022-08-09T16:07:38.705Z,30.10
2022-08-09T16:10:17.059Z,30.00
2022-08-09T16:12:59.594Z,30.00
2022-08-09T16:16:10.540Z,30.00
2022-08-09T16:18:16.079Z,29.90
2022-08-09T16:20:43.965Z,29.90
2022-08-09T16:23:14.877Z,29.80
2022-08-09T16:25:49.703Z,29.80
2022-08-09T16:28:25.780Z,29.70
2022-08-09T16:30:54.148Z,29.70
2022-08-09T16:33:27.662Z,29.70
2022-08-09T16:36:02.070Z,29.70
2022-08-09T16:38:32.629Z,29.60
2022-08-09T16:41:04.206Z,29.50
2022-08-09T16:43:33.732Z,29.50
2022-08-09T16:46:08.617Z,29.40
2022-08-09T16:48:53.248Z,29.40
2022-08-09T16:51:23.949Z,29.30
2022-08-09T16:54:22.481Z,29.30
2022-08-09T16:56:49.252Z,29.20
2022-08-09T16:59:19.441Z,29.20
2022-08-09T17:01:51.368Z,29.10
2022-08-09T17:04:26.041Z,29.10
2022-08-09T17:08:40.971Z,29.00
2022-08-09T17:09:47.460Z,29.00
2022-08-09T17:12:16.228Z,28.90
2022-08-09T17:14:49.051Z,28.90
2022-08-09T17:17:26.422Z,28.80
2022-08-09T17:20:28.461Z,28.80
2022-08-09T17:22:52.228Z,28.70
2022-08-09T17:25:22.347Z,28.60
2022-08-09T17:27:54.444Z,28.60
2022-08-09T17:30:25.719Z,28.50
2022-08-09T17:32:55.201Z,28.50
2022-08-09T17:35:29.235Z,28.50
2022-08-09T17:38:11.342Z,28.40
2022-08-09T17:40:47.362Z,28.30
2022-08-09T17:43:34.426Z,28.30
2022-08-09T17:46:07.530Z,28.30
2022-08-09T17:48:40.040Z,28.20
2022-08-09T17:51:18.223Z,28.10
2022-08-09T17:53:53.329Z,28.10
2022-08-09T17:56:27.386Z,28.00
2022-08-09T17:58:56.932Z,28.00
2022-08-09T18:01:40.770Z,27.90
2022-08-09T18:04:14.347Z,27.90
2022-08-09T18:06:43.092Z,27.80
2022-08-09T18:09:22.667Z,27.70
2022-08-09T18:12:05.590Z,27.70
2022-08-09T18:14:50.127Z,27.60
2022-08-09T18:17:27.420Z,27.50
2022-08-09T18:20:55.624Z,27.50
2022-08-09T18:23:04.850Z,27.40
2022-08-09T18:25:50.975Z,27.30
2022-08-09T18:30:35.613Z,27.30
2022-08-09T18:31:09.617Z,27.20
2022-08-09T18:33:40.013Z,27.10
2022-08-09T18:36:14.412Z,27.10
2022-08-09T18:38:57.557Z,27.00
2022-08-09T18:44:04.097Z,26.80
2022-08-09T18:46:46.176Z,26.70
2022-08-09T18:49:21.616Z,26.70
2022-08-09T18:51:55.106Z,26.50
2022-08-09T18:54:29.774Z,26.40
2022-08-09T18:57:06.434Z,26.40
2022-08-09T18:59:37.375Z,26.30
2022-08-09T19:02:18.002Z,26.20
2022-08-09T19:05:14.374Z,26.20
2022-08-09T19:07:36.101Z,26.10
2022-08-09T19:10:14.436Z,26.00
2022-08-09T19:12:50.326Z,25.90
2022-08-09T19:15:33.590Z,25.90
2022-08-09T19:18:02.042Z,25.70
2022-08-09T19:20:39.196Z,25.70
2022-08-09T19:23:07.965Z,25.60
2022-08-09T19:26:01.401Z,25.60
2022-08-09T19:28:28.838Z,25.50
2022-08-09T19:30:56.896Z,25.40
2022-08-09T19:33:25.042Z,25.40
2022-08-09T19:35:58.363Z,25.30
2022-08-09T19:38:27.243Z,25.30
2022-08-09T19:40:57.517Z,25.10
2022-08-09T19:44:01.917Z,25.10
2022-08-09T19:46:15.864Z,25.00
2022-08-09T19:49:00.100Z,24.90
2022-08-09T19:51:32.025Z,24.90
2022-08-09T19:54:05.736Z,24.70
2022-08-09T19:56:35.579Z,24.70
2022-08-09T19:59:39.600Z,24.60
2022-08-09T20:02:08.021Z,24.50
2022-08-09T20:04:52.825Z,24.40
2022-08-09T20:07:25.723Z,24.40
2022-08-09T20:10:17.643Z,24.30
2022-08-09T20:12:50.065Z,24.20
2022-08-09T20:16:37.405Z,24.10
2022-08-09T20:18:09.952Z,24.10
2022-08-09T20:20:38.064Z,24.10
2022-08-09T20:23:07.650Z,24.00
2022-08-09T20:25:49.621Z,23.90
2022-08-09T20:28:24.310Z,23.90
2022-08-09T20:31:00.197Z,23.80
2022-08-09T20:33:39.081Z,23.70
2022-08-09T20:36:12.247Z,23.70
2022-08-09T20:39:18.901Z,23.60
2022-08-09T20:41:35.123Z,23.50
2022-08-09T20:44:09.968Z,23.50
2022-08-09T20:46:42.782Z,23.50
2022-08-09T20:49:13.686Z,23.40
2022-08-09T20:51:42.443Z,23.40
2022-08-09T20:54:16.437Z,23.30
2022-08-09T20:56:46.804Z,23.30
2022-08-09T20:59:16.774Z,23.20
2022-08-09T21:01:51.063Z,23.10
2022-08-09T21:05:54.410Z,23.00
2022-08-09T21:07:14.225Z,23.00
2022-08-09T21:09:56.311Z,22.90
2022-08-09T21:15:15.683Z,22.90
2022-08-09T21:18:11.901Z,22.80
2022-08-09T21:20:32.757Z,22.80
2022-08-09T21:23:04.425Z,22.70
2022-08-09T21:25:56.298Z,22.70
2022-08-09T21:28:34.657Z,22.60
2022-08-09T21:31:13.649Z,22.60
2022-08-09T21:33:51.000Z,22.50
2022-08-09T21:36:23.014Z,22.50
2022-08-09T21:38:57.768Z,22.40
2022-08-09T21:42:03.931Z,22.40
2022-08-09T21:44:33.080Z,22.30
2022-08-09T21:47:04.290Z,22.30
2022-08-09T21:49:40.523Z,22.20
2022-08-09T21:52:14.942Z,22.20
2022-08-09T21:54:51.057Z,22.20
2022-08-09T21:57:37.012Z,22.10
2022-08-09T22:00:08.934Z,22.10
2022-08-09T22:02:38.052Z,22.10
2022-08-09T22:05:22.856Z,22.00
2022-08-09T22:07:53.349Z,21.90
2022-08-09T22:10:23.866Z,21.90
2022-08-09T22:12:53.617Z,21.90
2022-08-09T22:15:23.476Z,21.80
2022-08-09T22:18:01.469Z,21.80
2022-08-09T22:20:31.295Z,21.70
2022-08-09T22:22:59.365Z,21.70
2022-08-09T22:26:07.824Z,21.60
2022-08-09T22:28:29.463Z,21.60
2022-08-09T22:31:00.690Z,21.50
2022-08-09T22:33:37.516Z,21.40
2022-08-09T22:36:19.440Z,21.40
2022-08-09T22:38:47.882Z,21.30
2022-08-09T22:41:16.203Z,21.20
2022-08-09T22:44:01.597Z,21.20
2022-08-09T22:48:18.626Z,21.20
2022-08-09T22:49:20.120Z,21.10
2022-08-09T22:51:57.433Z,21.10
2022-08-09T22:54:27.290Z,21.00
2022-08-09T22:56:57.027Z,21.00
2022-08-09T22:59:57.101Z,20.90
2022-08-09T23:02:15.942Z,20.80
2022-08-09T23:04:54.179Z,20.80
2022-08-09T23:08:21.005Z,20.80
2022-08-09T23:10:29.461Z,20.80
2022-08-09T23:12:57.456Z,20.70
2022-08-09T23:15:27.369Z,20.70
2022-08-09T23:17:55.323Z,20.70
2022-08-09T23:20:25.618Z,20.60
2022-08-09T23:22:53.579Z,20.50
2022-08-09T23:25:21.534Z,20.50
2022-08-09T23:28:14.164Z,20.40
2022-08-09T23:30:38.735Z,20.40
2022-08-09T23:33:06.695Z,20.30
2022-08-09T23:36:06.279Z,20.30
2022-08-09T23:38:22.967Z,20.30
2022-08-09T23:40:51.777Z,20.20
2022-08-09T23:43:19.889Z,20.20
2022-08-09T23:45:49.265Z,20.10
2022-08-09T23:48:18.096Z,20.10
2022-08-09T23:50:46.140Z,20.10
2022-08-09T23:53:14.204Z,20.00
2022-08-09T23:55:49.699Z,20.00
2022-08-09T23:58:25.881Z,19.90
